Time;durP1;ratioP1;P1;durP2;ratioP2;P2;SDS_P1;SDS_P2;PMS_P1;PMS_P2;Temp;Humidity;BMP_temperature;BMP_pressure;BME280_temperature;BME280_humidity;BME280_pressure;Samples;Min_cycle;Max_cycle;Signal;HPM_P1;HPM_P2
2022/04/08 00:00:47;;;;;;;1.30;0.90;;;9.10;99.90;;;;;;5105639;28;20386;-86
2022/04/08 00:03:13;;;;;;;0.90;0.70;;;9.10;99.90;;;;;;5088493;28;20526;-86
2022/04/08 00:05:39;;;;;;;2.30;0.77;;;9.10;99.90;;;;;;5106225;28;20781;-86
2022/04/08 00:08:04;;;;;;;2.17;0.80;;;9.10;99.90;;;;;;5106745;28;20485;-86
2022/04/08 00:10:30;;;;;;;1.83;0.80;;;9.00;99.90;;;;;;5087465;28;20405;-86
2022/04/08 00:12:57;;;;;;;1.23;0.80;;;9.30;99.90;;;;;;5107135;28;20370;-85
2022/04/08 00:15:23;;;;;;;1.45;0.77;;;9.60;99.90;;;;;;5105576;28;20415;-85
2022/04/08 00:17:49;;;;;;;1.17;0.90;;;8.90;99.90;;;;;;5105142;28;20382;-86
2022/04/08 00:20:15;;;;;;;0.85;0.68;;;9.00;99.90;;;;;;5102062;28;20390;-86
2022/04/08 00:22:42;;;;;;;1.40;0.60;;;9.40;99.90;;;;;;5106242;28;20452;-85
2022/04/08 00:25:09;;;;;;;1.65;0.60;;;8.90;99.90;;;;;;5105303;28;20374;-86
2022/04/08 00:27:35;;;;;;;0.93;0.63;;;9.00;99.90;;;;;;5105303;28;20423;-86
2022/04/08 00:30:00;;;;;;;0.70;0.50;;;9.00;99.90;;;;;;5105586;28;20457;-86
2022/04/08 00:32:29;;;;;;;0.60;0.40;;;9.00;99.90;;;;;;5104579;28;20374;-86
2022/04/08 00:34:54;;;;;;;0.30;0.30;;;8.90;99.90;;;;;;5104993;28;20776;-86
2022/04/08 00:37:20;;;;;;;0.73;0.40;;;8.90;99.90;;;;;;5105076;28;20377;-86
2022/04/08 00:39:46;;;;;;;0.80;0.40;;;8.90;99.90;;;;;;5105211;28;20435;-86
2022/04/08 00:42:14;;;;;;;0.93;0.50;;;8.90;99.90;;;;;;5105282;28;20393;-86
2022/04/08 00:44:40;;;;;;;0.57;0.40;;;8.80;99.90;;;;;;5104463;28;20479;-86
2022/04/08 00:47:06;;;;;;;1.20;0.45;;;8.70;99.90;;;;;;5084811;28;20406;-85
2022/04/08 00:49:34;;;;;;;0.60;0.40;;;8.80;99.90;;;;;;5086806;28;20919;-86
2022/04/08 00:52:01;;;;;;;0.50;0.40;;;8.70;99.90;;;;;;5086619;28;20397;-85
2022/04/08 00:54:28;;;;;;;0.43;0.30;;;8.70;99.90;;;;;;5103920;28;20382;-84
2022/04/08 00:56:53;;;;;;;0.45;0.30;;;8.70;99.90;;;;;;5104524;28;20464;-86
2022/04/08 00:59:20;;;;;;;0.50;0.47;;;8.70;99.90;;;;;;5103956;28;20410;-86
2022/04/08 01:01:46;;;;;;;0.95;0.40;;;8.60;99.90;;;;;;5104587;28;20404;-86
2022/04/08 01:04:12;;;;;;;0.68;0.40;;;8.70;99.90;;;;;;5104805;28;20486;-86
2022/04/08 01:06:38;;;;;;;1.00;0.40;;;8.70;99.90;;;;;;5104246;28;20386;-86
2022/04/08 01:09:04;;;;;;;0.53;0.40;;;8.70;99.90;;;;;;5104457;28;20374;-85
2022/04/08 01:11:30;;;;;;;1.00;0.50;;;8.70;99.90;;;;;;5104933;28;20926;-86
2022/04/08 01:14:06;;;;;;;1.70;0.73;;;8.60;99.90;;;;;;5108295;28;20454;-86
2022/04/08 01:16:31;;;;;;;1.20;0.50;;;8.60;99.90;;;;;;5087057;28;20431;-86
2022/04/08 01:18:57;;;;;;;1.40;0.73;;;9.10;99.90;;;;;;5105928;28;20765;-86
2022/04/08 01:21:22;;;;;;;1.30;0.60;;;8.50;99.90;;;;;;5105544;28;20871;-86
2022/04/08 01:23:52;;;;;;;1.40;0.60;;;8.50;99.90;;;;;;5109077;28;20388;-85
2022/04/08 01:26:17;;;;;;;1.33;0.80;;;8.40;99.90;;;;;;5107979;28;20459;-86
2022/04/08 01:28:45;;;;;;;1.90;0.70;;;8.40;99.90;;;;;;5089440;28;20773;-85
2022/04/08 01:31:10;;;;;;;2.08;1.00;;;9.10;99.90;;;;;;5106885;28;20401;-85
2022/04/08 01:33:36;;;;;;;2.10;0.90;;;8.30;99.90;;;;;;5102735;28;20443;-86
2022/04/08 01:36:02;;;;;;;2.95;0.85;;;8.30;99.90;;;;;;5105699;28;20404;-86
2022/04/08 01:38:27;;;;;;;2.15;0.95;;;8.20;99.90;;;;;;5104441;28;20454;-86
2022/04/08 01:40:53;;;;;;;2.85;0.95;;;9.20;99.90;;;;;;5107059;28;20378;-86
2022/04/08 01:43:19;;;;;;;2.13;0.90;;;8.30;99.90;;;;;;5108417;28;20378;-86
2022/04/08 01:45:44;;;;;;;4.55;1.35;;;8.20;99.90;;;;;;5106675;28;20396;-86
2022/04/08 01:48:10;;;;;;;2.55;1.00;;;8.20;99.90;;;;;;5089317;28;20427;-86
2022/04/08 01:50:36;;;;;;;2.50;1.05;;;8.20;99.90;;;;;;5107166;28;20824;-86
2022/04/08 01:53:01;;;;;;;3.60;1.35;;;8.20;99.90;;;;;;5088673;28;20439;-84
2022/04/08 01:55:27;;;;;;;3.93;1.37;;;8.20;99.90;;;;;;5090108;28;20416;-86
2022/04/08 01:57:53;;;;;;;2.87;1.33;;;8.20;99.90;;;;;;5087891;28;20872;-85
2022/04/08 02:00:19;;;;;;;4.33;1.17;;;8.10;99.90;;;;;;5107079;28;20713;-86
2022/04/08 02:02:45;;;;;;;2.57;1.30;;;8.10;99.90;;;;;;5088110;28;20405;-86
2022/04/08 02:05:11;;;;;;;4.63;1.38;;;8.10;99.90;;;;;;5107188;28;20378;-86
2022/04/08 02:07:37;;;;;;;4.35;1.48;;;8.00;99.90;;;;;;5087862;28;20460;-86
2022/04/08 02:10:04;;;;;;;3.28;1.30;;;8.00;99.90;;;;;;5108185;28;20370;-86
2022/04/08 02:12:30;;;;;;;2.80;1.20;;;8.00;99.90;;;;;;5106334;28;20374;-86
2022/04/08 02:14:56;;;;;;;4.13;1.33;;;8.00;99.90;;;;;;5089513;28;20393;-86
2022/04/08 02:17:25;;;;;;;3.65;1.30;;;8.00;99.90;;;;;;5107948;28;20402;-86
2022/04/08 02:19:51;;;;;;;4.32;1.30;;;8.00;99.90;;;;;;5108284;28;20853;-86
2022/04/08 02:22:17;;;;;;;3.85;1.27;;;9.10;99.90;;;;;;5108561;28;20398;-87
2022/04/08 02:24:43;;;;;;;2.60;0.97;;;7.90;99.90;;;;;;5108012;28;20393;-86
2022/04/08 02:27:09;;;;;;;3.27;1.17;;;7.90;99.90;;;;;;5106092;28;20815;-86
2022/04/08 02:29:34;;;;;;;3.37;1.50;;;8.00;99.90;;;;;;5088861;28;20378;-86
2022/04/08 02:32:00;;;;;;;3.63;1.52;;;8.00;99.90;;;;;;5105905;28;20378;-86
2022/04/08 02:34:26;;;;;;;4.50;1.52;;;7.90;99.90;;;;;;5087776;28;20378;-85
2022/04/08 02:36:51;;;;;;;5.65;1.50;;;7.90;99.90;;;;;;5107236;28;20406;-86
2022/04/08 02:39:17;;;;;;;4.65;1.52;;;7.90;99.90;;;;;;5106367;28;20419;-86
2022/04/08 02:41:43;;;;;;;3.75;1.50;;;8.20;99.90;;;;;;5106575;28;20389;-86
2022/04/08 02:44:09;;;;;;;3.92;1.58;;;8.10;99.90;;;;;;5108950;28;20469;-86
2022/04/08 02:46:35;;;;;;;3.00;1.40;;;7.90;99.90;;;;;;5106110;28;20747;-86
2022/04/08 02:49:00;;;;;;;4.70;1.40;;;8.20;99.90;;;;;;5107067;28;20389;-86
2022/04/08 02:51:28;;;;;;;3.08;1.50;;;7.90;99.90;;;;;;5106396;28;20753;-87
2022/04/08 02:53:54;;;;;;;2.85;1.27;;;7.90;99.90;;;;;;5089202;28;20900;-86
2022/04/08 02:56:20;;;;;;;3.50;1.50;;;7.90;99.90;;;;;;5104927;28;20408;-85
2022/04/08 02:58:48;;;;;;;2.37;1.10;;;7.90;99.90;;;;;;5085589;28;20920;-87
2022/04/08 03:01:15;;;;;;;2.63;1.20;;;7.90;99.90;;;;;;5104937;28;20374;-86
2022/04/08 03:03:40;;;;;;;2.30;0.90;;;7.90;99.90;;;;;;5087233;28;20385;-86
2022/04/08 03:06:06;;;;;;;2.25;1.10;;;8.00;99.90;;;;;;5107096;28;20413;-86
2022/04/08 03:08:32;;;;;;;2.33;1.00;;;7.90;99.90;;;;;;5107804;28;20405;-86
2022/04/08 03:10:58;;;;;;;2.17;1.00;;;7.90;99.90;;;;;;5086839;28;20535;-86
2022/04/08 03:13:23;;;;;;;2.60;1.03;;;7.90;99.90;;;;;;5106619;28;20382;-86
2022/04/08 03:15:50;;;;;;;1.60;1.00;;;7.90;99.90;;;;;;5105799;28;20388;-86
2022/04/08 03:18:15;;;;;;;2.30;0.98;;;8.10;99.90;;;;;;5104988;28;20799;-86
2022/04/08 03:20:41;;;;;;;2.27;1.00;;;7.90;99.90;;;;;;5105403;28;20378;-86
2022/04/08 03:23:07;;;;;;;2.33;1.00;;;7.90;99.90;;;;;;5104907;28;20390;-86
2022/04/08 03:25:32;;;;;;;2.03;0.90;;;7.90;99.90;;;;;;5105608;28;20443;-86
2022/04/08 03:27:58;;;;;;;2.87;1.20;;;7.90;99.90;;;;;;5104439;28;20412;-87
2022/04/08 03:30:27;;;;;;;2.17;1.00;;;7.90;99.90;;;;;;5106042;28;20458;-86
2022/04/08 03:32:55;;;;;;;2.75;1.10;;;7.90;99.90;;;;;;5087978;28;20455;-85
2022/04/08 03:35:21;;;;;;;2.90;1.53;;;7.90;99.90;;;;;;5105059;28;20374;-86
2022/04/08 03:37:47;;;;;;;3.58;1.50;;;8.10;99.90;;;;;;5103925;28;20393;-86
2022/04/08 03:40:12;;;;;;;2.70;1.30;;;8.70;99.90;;;;;;5103683;28;20413;-86
2022/04/08 03:42:38;;;;;;;2.92;1.30;;;8.10;99.90;;;;;;5103664;28;20749;-87
2022/04/08 03:45:05;;;;;;;4.15;1.60;;;8.10;99.90;;;;;;5102295;28;20473;-86
2022/04/08 03:47:30;;;;;;;3.83;2.00;;;8.20;99.90;;;;;;5102771;28;20485;-87
2022/04/08 03:49:57;;;;;;;3.20;1.33;;;8.10;99.90;;;;;;5103532;28;20382;-86
2022/04/08 03:52:23;;;;;;;3.70;1.20;;;7.90;99.90;;;;;;5103855;28;20816;-87
2022/04/08 03:54:49;;;;;;;3.35;1.50;;;7.90;99.90;;;;;;5103271;28;20386;-86
2022/04/08 03:57:15;;;;;;;2.47;1.13;;;7.80;99.90;;;;;;5101339;28;20390;-86
2022/04/08 03:59:41;;;;;;;3.10;1.17;;;7.80;99.90;;;;;;5101426;28;20915;-87
2022/04/08 04:02:07;;;;;;;2.20;1.20;;;8.10;99.90;;;;;;5101293;28;20374;-87
2022/04/08 04:04:33;;;;;;;3.25;1.35;;;7.80;99.90;;;;;;5101346;28;20388;-86
2022/04/08 04:06:59;;;;;;;3.13;1.05;;;7.80;99.90;;;;;;5101451;28;20406;-87
2022/04/08 04:09:24;;;;;;;2.57;1.00;;;7.80;99.90;;;;;;5102854;28;20378;-86
2022/04/08 04:11:51;;;;;;;4.07;1.03;;;7.90;99.90;;;;;;5101522;28;20799;-86
2022/04/08 04:14:16;;;;;;;2.10;1.08;;;7.80;99.90;;;;;;5101673;28;20385;-86
2022/04/08 04:16:42;;;;;;;2.63;1.10;;;7.80;99.90;;;;;;5082727;28;20473;-87
2022/04/08 04:19:08;;;;;;;2.33;1.00;;;7.80;99.90;;;;;;5100228;28;20959;-87
2022/04/08 04:21:33;;;;;;;4.20;1.20;;;7.80;99.90;;;;;;5093149;28;20469;-86
2022/04/08 04:23:59;;;;;;;4.93;1.30;;;7.80;99.90;;;;;;5098325;28;20816;-86
2022/04/08 04:26:24;;;;;;;4.07;1.50;;;7.90;99.90;;;;;;5099799;28;20389;-87
2022/04/08 04:28:50;;;;;;;4.35;1.38;;;7.90;99.90;;;;;;5080289;28;20471;-87
2022/04/08 04:31:16;;;;;;;2.95;1.20;;;7.90;99.90;;;;;;5099162;28;20764;-87
2022/04/08 04:33:41;;;;;;;5.05;1.42;;;8.60;99.90;;;;;;5100126;28;20382;-86
2022/04/08 04:36:07;;;;;;;2.63;1.27;;;8.60;99.90;;;;;;5099882;28;20388;-86
2022/04/08 04:38:33;;;;;;;4.20;1.00;;;8.40;99.90;;;;;;5102402;28;20924;-86
2022/04/08 04:40:58;;;;;;;3.03;1.05;;;8.00;99.90;;;;;;5102720;28;20394;-87
2022/04/08 04:43:24;;;;;;;2.28;1.05;;;8.10;99.90;;;;;;5101381;28;20386;-87
2022/04/08 04:45:49;;;;;;;3.47;1.30;;;8.50;99.90;;;;;;5100932;28;20404;-87
2022/04/08 04:48:16;;;;;;;3.08;1.20;;;8.10;99.90;;;;;;5100080;28;20401;-87
2022/04/08 04:50:42;;;;;;;3.60;1.70;;;8.90;99.90;;;;;;5099057;28;20370;-86
2022/04/08 04:53:08;;;;;;;3.33;1.60;;;7.80;99.90;;;;;;5099797;28;20377;-87
2022/04/08 04:55:33;;;;;;;3.10;1.30;;;7.70;99.90;;;;;;5099292;28;20377;-86
2022/04/08 04:58:00;;;;;;;3.77;1.40;;;7.70;99.90;;;;;;5100691;28;20378;-86
2022/04/08 05:00:25;;;;;;;2.72;1.20;;;7.70;99.90;;;;;;5099827;28;20436;-86
2022/04/08 05:02:51;;;;;;;2.78;1.20;;;7.70;99.90;;;;;;5101035;28;20386;-86
2022/04/08 05:05:17;;;;;;;3.53;1.25;;;7.70;99.90;;;;;;5103262;28;20382;-86
2022/04/08 05:07:43;;;;;;;2.58;1.10;;;7.80;99.90;;;;;;5073031;28;20931;-86
2022/04/08 05:10:09;;;;;;;2.50;1.08;;;7.80;99.90;;;;;;5099227;28;20370;-87
2022/04/08 05:12:38;;;;;;;3.00;1.10;;;8.10;99.90;;;;;;5099183;28;20469;-86
2022/04/08 05:15:09;;;;;;;2.45;1.20;;;8.10;99.90;;;;;;5077944;28;20435;-86
2022/04/08 05:17:36;;;;;;;2.03;1.00;;;8.10;99.90;;;;;;5101202;28;20382;-86
2022/04/08 05:20:03;;;;;;;3.90;1.20;;;8.20;99.90;;;;;;5099815;28;20469;-86
2022/04/08 05:22:28;;;;;;;3.13;1.20;;;9.10;99.90;;;;;;5100714;28;20416;-86
2022/04/08 05:24:54;;;;;;;4.03;1.33;;;8.20;99.90;;;;;;5099863;28;20944;-87
2022/04/08 05:27:20;;;;;;;3.93;1.63;;;8.20;99.90;;;;;;5101015;28;20397;-85
2022/04/08 05:29:45;;;;;;;3.30;1.63;;;8.10;99.90;;;;;;5100555;28;20786;-86
2022/04/08 05:32:11;;;;;;;4.03;1.40;;;8.20;99.90;;;;;;5081979;28;20389;-85
2022/04/08 05:34:36;;;;;;;2.87;1.20;;;8.00;99.90;;;;;;5099190;28;20395;-84
2022/04/08 05:37:02;;;;;;;3.30;1.93;;;8.00;99.90;;;;;;5088279;28;20386;-85
2022/04/08 05:39:28;;;;;;;4.63;2.60;;;8.20;99.90;;;;;;5101180;28;20484;-86
2022/04/08 05:41:53;;;;;;;3.60;2.03;;;8.10;99.90;;;;;;5099222;28;20408;-86
2022/04/08 05:44:19;;;;;;;3.13;1.93;;;8.40;99.90;;;;;;5099057;28;20479;-85
2022/04/08 05:46:44;;;;;;;3.67;2.10;;;8.60;99.90;;;;;;5099618;28;20453;-86
2022/04/08 05:49:10;;;;;;;3.22;2.20;;;8.70;99.90;;;;;;5098757;28;20463;-86
2022/04/08 05:51:36;;;;;;;2.72;1.70;;;8.60;99.90;;;;;;5097662;28;20376;-86
2022/04/08 05:54:01;;;;;;;3.42;1.70;;;8.90;99.90;;;;;;5098231;28;20412;-86
2022/04/08 05:56:27;;;;;;;3.60;2.13;;;8.60;99.90;;;;;;5095608;28;20837;-86
2022/04/08 05:58:52;;;;;;;3.47;1.50;;;8.70;99.90;;;;;;5099286;28;20903;-85
2022/04/08 06:01:18;;;;;;;3.58;1.80;;;8.50;99.90;;;;;;5099416;28;20382;-86
2022/04/08 06:03:44;;;;;;;3.55;1.42;;;8.30;99.90;;;;;;5098909;28;20378;-84
2022/04/08 06:06:09;;;;;;;3.17;1.60;;;8.30;99.90;;;;;;5082890;28;20382;-85
2022/04/08 06:08:35;;;;;;;4.68;1.58;;;8.10;99.90;;;;;;5103414;28;20884;-85
2022/04/08 06:11:01;;;;;;;3.47;1.75;;;8.00;99.90;;;;;;5104811;28;20454;-84
2022/04/08 06:13:26;;;;;;;3.63;1.77;;;7.80;99.90;;;;;;5105111;28;20374;-85
2022/04/08 06:15:55;;;;;;;3.35;1.70;;;7.90;99.90;;;;;;5105718;28;20790;-86
2022/04/08 06:18:21;;;;;;;2.15;1.73;;;7.90;99.90;;;;;;5102580;28;20389;-85
2022/04/08 06:20:47;;;;;;;4.40;2.27;;;7.90;99.90;;;;;;5105567;28;20892;-85
2022/04/08 06:23:12;;;;;;;4.70;2.15;;;7.90;99.90;;;;;;5102816;28;20378;-85
2022/04/08 06:25:38;;;;;;;4.57;2.40;;;8.70;99.90;;;;;;5084660;28;20745;-85
2022/04/08 06:28:06;;;;;;;4.15;1.90;;;8.00;99.90;;;;;;5104277;28;20401;-84
2022/04/08 06:30:37;;;;;;;2.45;2.00;;;7.80;99.90;;;;;;5085164;28;20390;-84
2022/04/08 06:33:05;;;;;;;3.53;2.20;;;8.30;99.90;;;;;;5102606;28;20860;-85
2022/04/08 06:35:31;;;;;;;4.18;2.40;;;7.80;99.90;;;;;;5102628;28;20374;-84
2022/04/08 06:37:59;;;;;;;4.00;2.23;;;7.80;99.90;;;;;;5111042;28;20376;-84
2022/04/08 06:40:24;;;;;;;3.88;2.10;;;7.90;99.90;;;;;;5108640;28;20378;-85
2022/04/08 06:42:55;;;;;;;4.10;2.07;;;7.90;99.90;;;;;;5103511;28;20432;-84
2022/04/08 06:45:22;;;;;;;3.37;2.10;;;8.00;99.90;;;;;;5103177;28;20435;-85
2022/04/08 06:47:51;;;;;;;3.75;2.15;;;8.00;99.90;;;;;;5100784;28;20394;-84
2022/04/08 06:50:17;;;;;;;3.20;2.10;;;8.00;99.90;;;;;;5076931;28;20390;-84
2022/04/08 06:52:43;;;;;;;5.47;2.25;;;8.00;99.90;;;;;;5099649;28;20405;-85
2022/04/08 06:55:09;;;;;;;5.38;2.88;;;8.00;99.90;;;;;;5099170;28;20394;-85
2022/04/08 06:57:35;;;;;;;5.43;2.27;;;8.10;99.90;;;;;;5099170;28;20374;-84
2022/04/08 07:00:04;;;;;;;4.65;2.10;;;8.90;99.90;;;;;;5099901;28;20390;-85
2022/04/08 07:02:30;;;;;;;3.67;2.08;;;8.90;99.90;;;;;;5080217;28;20922;-85
2022/04/08 07:04:55;;;;;;;3.13;1.92;;;8.10;99.90;;;;;;5073751;28;20394;-84
2022/04/08 07:07:21;;;;;;;3.30;1.85;;;8.10;99.90;;;;;;5100784;28;20390;-85
2022/04/08 07:09:46;;;;;;;3.53;2.38;;;8.10;99.90;;;;;;5082849;28;20873;-84
2022/04/08 07:12:12;;;;;;;4.25;2.03;;;8.20;99.90;;;;;;5100192;28;20406;-85
2022/04/08 07:14:38;;;;;;;3.22;1.73;;;8.40;99.90;;;;;;5100142;28;20420;-84
2022/04/08 07:17:03;;;;;;;3.13;1.70;;;8.30;99.90;;;;;;5099790;28;20382;-84
2022/04/08 07:19:29;;;;;;;3.10;1.33;;;8.20;99.90;;;;;;5099928;28;20824;-85
2022/04/08 07:21:56;;;;;;;3.95;1.30;;;8.20;99.90;;;;;;5093517;28;20390;-84
2022/04/08 07:24:21;;;;;;;2.42;1.40;;;8.20;99.90;;;;;;5096480;28;20939;-84
2022/04/08 07:26:47;;;;;;;2.95;1.45;;;8.20;99.90;;;;;;5101773;28;20378;-85
2022/04/08 07:29:13;;;;;;;2.53;1.40;;;8.30;99.90;;;;;;5098927;28;20382;-85
2022/04/08 07:31:39;;;;;;;2.63;1.30;;;8.60;99.90;;;;;;5098671;28;20389;-84
2022/04/08 07:34:04;;;;;;;2.10;1.20;;;8.30;99.90;;;;;;5099791;28;20421;-84
2022/04/08 07:36:30;;;;;;;1.97;1.17;;;9.00;99.90;;;;;;5101879;28;20382;-84
2022/04/08 07:38:55;;;;;;;2.83;1.23;;;8.40;99.90;;;;;;5096221;28;20393;-84
2022/04/08 07:41:21;;;;;;;2.37;1.33;;;8.40;99.90;;;;;;5097388;28;20386;-84
2022/04/08 07:43:47;;;;;;;3.03;1.60;;;8.60;99.90;;;;;;5098167;28;20476;-84
2022/04/08 07:46:12;;;;;;;2.00;1.20;;;8.50;99.90;;;;;;5097872;28;20406;-84
2022/04/08 07:48:38;;;;;;;2.17;1.10;;;8.50;99.90;;;;;;5097012;28;20397;-84
2022/04/08 07:51:03;;;;;;;2.87;1.50;;;8.50;99.90;;;;;;5096036;28;20382;-84
2022/04/08 07:53:29;;;;;;;4.63;1.70;;;8.50;99.90;;;;;;5097108;28;21224;-85
2022/04/08 07:55:55;;;;;;;2.37;1.37;;;8.70;99.90;;;;;;5099548;28;20386;-85
2022/04/08 07:58:21;;;;;;;2.92;2.08;;;8.70;99.90;;;;;;5099216;28;20393;-84
2022/04/08 08:00:46;;;;;;;5.13;1.20;;;8.70;99.90;;;;;;5098091;28;20795;-85
2022/04/08 08:03:15;;;;;;;2.53;1.05;;;8.80;99.90;;;;;;5089743;28;20394;-85
2022/04/08 08:05:40;;;;;;;3.22;1.10;;;8.90;99.90;;;;;;5092927;28;20429;-84
2022/04/08 08:08:06;;;;;;;1.97;1.10;;;9.00;99.90;;;;;;5097773;28;20406;-84
2022/04/08 08:10:35;;;;;;;1.70;0.95;;;8.80;99.90;;;;;;5097545;28;20385;-85
2022/04/08 08:13:01;;;;;;;2.22;1.20;;;8.80;99.90;;;;;;5098453;28;20389;-85
2022/04/08 08:15:28;;;;;;;2.07;1.30;;;8.80;99.90;;;;;;5096906;28;20397;-85
2022/04/08 08:17:55;;;;;;;2.17;1.10;;;8.80;99.90;;;;;;5097758;28;20726;-84
2022/04/08 08:20:22;;;;;;;2.17;1.10;;;8.80;99.90;;;;;;5098367;28;20402;-86
2022/04/08 08:22:48;;;;;;;2.92;1.00;;;8.80;99.90;;;;;;5097061;28;20406;-85
2022/04/08 08:25:14;;;;;;;2.15;1.00;;;8.90;99.90;;;;;;5094270;28;20842;-85
2022/04/08 08:27:45;;;;;;;1.95;1.10;;;8.90;99.90;;;;;;5094313;28;20753;-85
2022/04/08 08:30:13;;;;;;;3.00;1.30;;;9.60;99.90;;;;;;5095183;28;20381;-87
2022/04/08 08:32:40;;;;;;;2.08;1.25;;;9.00;99.90;;;;;;5101569;28;20507;-87
2022/04/08 08:35:08;;;;;;;2.05;1.10;;;9.20;99.90;;;;;;5097687;28;20406;-87
2022/04/08 08:37:34;;;;;;;2.63;1.33;;;8.90;99.90;;;;;;5092132;28;20389;-88
2022/04/08 08:40:00;;;;;;;2.22;1.10;;;10.00;99.90;;;;;;5092369;28;20406;-87
2022/04/08 08:42:26;;;;;;;2.40;1.02;;;8.80;99.90;;;;;;5074844;28;20446;-88
2022/04/08 08:44:52;;;;;;;2.10;1.05;;;9.20;99.90;;;;;;5069858;28;20382;-87
2022/04/08 08:47:18;;;;;;;2.45;1.00;;;8.90;99.90;;;;;;5075432;28;20406;-88
2022/04/08 08:49:50;;;;;;;4.20;2.10;;;9.00;99.90;;;;;;5093911;28;20406;-88
2022/04/08 08:52:19;;;;;;;2.15;1.50;;;8.80;99.90;;;;;;5093430;28;20400;-88
2022/04/08 08:54:48;;;;;;;3.22;1.80;;;8.80;99.90;;;;;;5093057;28;20374;-88
2022/04/08 08:57:19;;;;;;;2.65;1.30;;;9.30;99.90;;;;;;5099286;28;20396;-88
2022/04/08 08:59:45;;;;;;;7.43;2.58;;;9.70;99.90;;;;;;5106578;28;20723;-88
2022/04/08 09:02:19;;;;;;;10.30;2.90;;;8.90;99.90;;;;;;5113402;28;20372;-88
2022/04/08 09:04:45;;;;;;;6.78;4.28;;;8.90;99.90;;;;;;5113826;28;20372;-87
2022/04/08 09:07:29;;;;;;;8.20;5.10;;;8.60;99.90;;;;;;5104783;28;20390;-87
2022/04/08 09:09:57;;;;;;;6.00;3.83;;;8.70;99.90;;;;;;5090505;28;20460;-88
2022/04/08 09:12:27;;;;;;;9.77;6.75;;;8.50;99.90;;;;;;5097553;28;20373;-88
2022/04/08 09:14:55;;;;;;;6.13;4.30;;;8.60;99.90;;;;;;5118301;28;20376;-87
2022/04/08 09:17:23;;;;;;;6.75;3.60;;;8.50;99.90;;;;;;5117335;28;20382;-88
2022/04/08 09:19:50;;;;;;;5.63;3.10;;;8.40;99.90;;;;;;5114065;28;20376;-87
2022/04/08 09:22:18;;;;;;;5.55;2.03;;;8.60;99.90;;;;;;5118341;28;20376;-88
2022/04/08 09:24:43;;;;;;;4.40;1.87;;;8.70;99.90;;;;;;5118588;28;20893;-88
2022/04/08 09:27:12;;;;;;;2.70;1.38;;;8.80;99.90;;;;;;5118609;28;20396;-87
2022/04/08 09:29:43;;;;;;;5.35;3.30;;;8.60;99.90;;;;;;5117297;28;20369;-88
2022/04/08 09:32:10;;;;;;;17.83;7.55;;;8.70;99.90;;;;;;5117062;28;20376;-88
2022/04/08 09:34:37;;;;;;;13.30;4.28;;;8.60;99.90;;;;;;5099051;28;20379;-88
2022/04/08 09:37:21;;;;;;;8.05;4.32;;;8.60;99.90;;;;;;5095152;28;20370;-88
2022/04/08 09:39:53;;;;;;;3.50;2.50;;;9.00;99.90;;;;;;5096191;28;20366;-88
2022/04/08 09:42:18;;;;;;;3.58;2.60;;;8.80;99.90;;;;;;5096328;28;20381;-88
2022/04/08 09:44:44;;;;;;;2.93;1.60;;;8.90;99.90;;;;;;5098152;28;20747;-88
2022/04/08 09:47:10;;;;;;;2.87;1.80;;;9.00;99.90;;;;;;5098290;28;20402;-88
2022/04/08 09:49:35;;;;;;;2.27;1.40;;;9.30;99.90;;;;;;5098191;28;20382;-88
2022/04/08 09:52:07;;;;;;;2.10;1.40;;;9.10;99.90;;;;;;5097857;28;20835;-88
2022/04/08 09:54:33;;;;;;;1.40;1.20;;;8.80;99.90;;;;;;5097605;28;20906;-87
2022/04/08 09:57:01;;;;;;;1.85;1.40;;;9.60;99.90;;;;;;5079063;28;20382;-87
2022/04/08 09:59:30;;;;;;;2.88;2.20;;;9.70;99.90;;;;;;5096881;28;20370;-88
2022/04/08 10:01:58;;;;;;;2.67;2.20;;;8.90;99.90;;;;;;5096666;28;20385;-87
2022/04/08 10:04:24;;;;;;;4.25;3.85;;;9.20;99.90;;;;;;5096162;28;20907;-87
2022/04/08 10:06:50;;;;;;;8.03;5.77;;;9.00;99.90;;;;;;5096738;28;20389;-87
2022/04/08 10:09:19;;;;;;;4.43;3.95;;;9.10;99.90;;;;;;5077963;28;20374;-88
2022/04/08 10:11:59;;;;;;;2.47;1.73;;;9.30;99.90;;;;;;5096157;28;20387;-87
2022/04/08 10:14:43;;;;;;;4.97;4.00;;;9.40;99.90;;;;;;5095726;28;20377;-88
2022/04/08 10:17:10;;;;;;;2.20;2.00;;;9.50;99.90;;;;;;5095578;28;20362;-87
2022/04/08 10:19:35;;;;;;;1.63;1.53;;;10.30;99.90;;;;;;5095031;28;20418;-87
2022/04/08 10:22:02;;;;;;;2.50;1.77;;;9.70;99.90;;;;;;5099670;28;20739;-87
2022/04/08 10:24:31;;;;;;;2.10;1.90;;;9.80;99.90;;;;;;5116026;28;20376;-86
2022/04/08 10:27:09;;;;;;;1.63;1.50;;;9.90;99.90;;;;;;5115719;28;20372;-86
2022/04/08 10:29:35;;;;;;;2.08;1.55;;;10.00;99.90;;;;;;5116233;28;20372;-87
2022/04/08 10:32:12;;;;;;;1.60;1.50;;;10.10;99.90;;;;;;5113239;28;20381;-87
2022/04/08 10:34:38;;;;;;;1.63;1.30;;;10.20;99.90;;;;;;5095527;28;20385;-87
2022/04/08 10:37:20;;;;;;;1.55;0.90;;;10.40;99.90;;;;;;5077126;28;20771;-87
2022/04/08 10:40:02;;;;;;;1.55;0.98;;;10.50;99.90;;;;;;5096025;28;20384;-87
2022/04/08 10:42:29;;;;;;;1.02;0.70;;;10.80;99.90;;;;;;5095333;28;20366;-86
2022/04/08 10:44:55;;;;;;;1.70;0.60;;;10.80;99.90;;;;;;5095424;28;20406;-86
2022/04/08 10:47:23;;;;;;;0.93;0.77;;;10.90;99.90;;;;;;5095201;28;20406;-86
2022/04/08 10:49:51;;;;;;;0.88;0.60;;;11.00;99.90;;;;;;5094793;28;20381;-86
2022/04/08 10:52:18;;;;;;;0.73;0.60;;;11.80;99.90;;;;;;5095652;28;20374;-86
2022/04/08 10:54:45;;;;;;;0.50;0.50;;;11.10;99.90;;;;;;5095717;28;20451;-85
2022/04/08 10:57:11;;;;;;;1.20;0.70;;;11.20;99.90;;;;;;5095490;28;20393;-86
2022/04/08 10:59:36;;;;;;;0.63;0.60;;;11.30;99.90;;;;;;5095262;28;20370;-86
2022/04/08 11:02:05;;;;;;;0.80;0.80;;;11.40;99.90;;;;;;5060730;28;20394;-86
2022/04/08 11:04:32;;;;;;;1.10;0.90;;;11.90;99.90;;;;;;5077293;28;20826;-86
2022/04/08 11:07:05;;;;;;;2.00;1.70;;;11.60;99.90;;;;;;5094937;28;20377;-87
2022/04/08 11:09:31;;;;;;;0.73;0.73;;;11.50;99.90;;;;;;5095250;28;20378;-86
2022/04/08 11:11:57;;;;;;;0.65;0.60;;;11.60;99.90;;;;;;5077063;28;20406;-85
2022/04/08 11:14:22;;;;;;;0.63;0.60;;;11.60;99.90;;;;;;5094953;28;20547;-87
2022/04/08 11:16:51;;;;;;;0.50;0.50;;;11.60;99.90;;;;;;5095175;28;20381;-86
2022/04/08 11:19:20;;;;;;;1.15;0.70;;;11.70;99.90;;;;;;5077537;28;20402;-86
2022/04/08 11:21:47;;;;;;;0.80;0.55;;;11.80;99.90;;;;;;5095720;28;20424;-87
2022/04/08 11:24:14;;;;;;;1.70;0.50;;;12.00;99.90;;;;;;5076608;28;20374;-85
2022/04/08 11:26:43;;;;;;;1.02;0.60;;;12.60;99.90;;;;;;5095145;28;20428;-86
2022/04/08 11:29:12;;;;;;;0.50;0.50;;;11.90;99.90;;;;;;5095548;28;20479;-86
2022/04/08 11:31:39;;;;;;;0.50;0.40;;;11.90;99.90;;;;;;5095344;28;20374;-86
2022/04/08 11:34:05;;;;;;;0.43;0.43;;;12.00;99.90;;;;;;5076595;28;20864;-87
2022/04/08 11:36:32;;;;;;;0.70;0.60;;;12.00;99.90;;;;;;5094034;28;20381;-85
2022/04/08 11:38:57;;;;;;;1.20;0.50;;;11.90;99.90;;;;;;5095092;28;20390;-86
2022/04/08 11:41:23;;;;;;;0.40;0.40;;;12.00;99.90;;;;;;5095395;28;20401;-88
2022/04/08 11:43:49;;;;;;;0.80;0.50;;;12.00;99.90;;;;;;5077054;28;20943;-87
2022/04/08 11:46:16;;;;;;;0.60;0.60;;;13.00;99.90;;;;;;5094544;28;20379;-87
2022/04/08 11:48:43;;;;;;;0.60;0.50;;;12.20;99.90;;;;;;5094512;28;20455;-87
2022/04/08 11:51:09;;;;;;;0.57;0.55;;;12.10;99.90;;;;;;5095399;28;20807;-87
2022/04/08 11:53:45;;;;;;;0.70;0.50;;;12.10;99.90;;;;;;5094885;28;20470;-86
2022/04/08 11:56:12;;;;;;;0.93;0.50;;;12.10;99.90;;;;;;5094651;28;20382;-85
2022/04/08 11:58:38;;;;;;;0.50;0.40;;;12.10;99.90;;;;;;5095319;28;20382;-86
2022/04/08 12:01:05;;;;;;;0.60;0.60;;;12.10;99.90;;;;;;5094116;28;20393;-87
2022/04/08 12:03:33;;;;;;;0.65;0.50;;;13.30;99.90;;;;;;5095103;28;20394;-87
2022/04/08 12:06:00;;;;;;;1.73;0.52;;;12.20;99.90;;;;;;5094509;28;20389;-86
2022/04/08 12:08:27;;;;;;;0.60;0.40;;;12.20;99.90;;;;;;5075398;28;20427;-86
2022/04/08 12:10:55;;;;;;;1.70;0.50;;;12.30;99.90;;;;;;5094175;28;20378;-87
2022/04/08 12:13:29;;;;;;;1.42;0.88;;;12.30;99.90;;;;;;5076237;28;20378;-87
2022/04/08 12:16:00;;;;;;;0.87;0.80;;;11.30;99.90;;;;;;5095289;28;20413;-86
2022/04/08 12:18:32;;;;;;;1.20;0.60;;;12.40;99.90;;;;;;5095617;28;20392;-86
2022/04/08 12:21:05;;;;;;;1.17;0.60;;;12.20;99.90;;;;;;5094348;28;20390;-86
2022/04/08 12:23:30;;;;;;;1.67;0.60;;;12.20;99.90;;;;;;5094839;28;20374;-87
2022/04/08 12:26:00;;;;;;;0.50;0.50;;;13.40;99.90;;;;;;5094807;28;20389;-87
2022/04/08 12:28:31;;;;;;;1.30;0.50;;;12.20;99.90;;;;;;5093523;28;20914;-87
2022/04/08 12:30:57;;;;;;;1.25;0.50;;;13.30;99.90;;;;;;5093253;28;20378;-86
2022/04/08 12:33:23;;;;;;;0.70;0.70;;;12.30;99.90;;;;;;5075648;28;20899;-86
2022/04/08 12:35:49;;;;;;;0.75;0.60;;;12.20;99.90;;;;;;5092993;28;20435;-85
2022/04/08 12:38:22;;;;;;;0.63;0.52;;;12.60;99.90;;;;;;5093702;28;20382;-86
2022/04/08 12:40:48;;;;;;;1.87;1.23;;;12.20;99.90;;;;;;5092580;28;20835;-87
2022/04/08 12:43:14;;;;;;;1.00;0.80;;;12.20;99.90;;;;;;5093182;28;20409;-86
2022/04/08 12:45:39;;;;;;;1.20;0.77;;;12.30;99.90;;;;;;5093780;28;20865;-87
2022/04/08 12:48:06;;;;;;;1.40;0.80;;;12.10;99.90;;;;;;5075844;28;20401;-87
2022/04/08 12:50:32;;;;;;;1.20;0.82;;;12.00;99.90;;;;;;5093849;28;20380;-86
2022/04/08 12:52:58;;;;;;;1.48;0.95;;;12.20;99.90;;;;;;5075886;28;20484;-87